createdAt,value
2022-07-25T00:00:12.014Z,22.40
2022-07-25T00:02:40.445Z,22.40
2022-07-25T00:05:09.167Z,22.30
2022-07-25T00:07:37.151Z,22.30
2022-07-25T00:10:05.773Z,22.30
2022-07-25T00:12:33.853Z,22.40
2022-07-25T00:15:01.855Z,22.40
2022-07-25T00:17:31.225Z,22.40
2022-07-25T00:19:59.197Z,22.30
2022-07-25T00:22:27.276Z,22.30
2022-07-25T00:24:55.256Z,22.30
2022-07-25T00:27:23.218Z,22.30
2022-07-25T00:29:51.357Z,22.30
2022-07-25T00:32:19.223Z,22.40
2022-07-25T00:34:48.469Z,22.40
2022-07-25T00:37:16.453Z,22.40
2022-07-25T00:39:44.469Z,22.40
2022-07-25T00:42:12.365Z,22.40
2022-07-25T00:44:40.368Z,22.40
2022-07-25T00:47:08.316Z,22.40
2022-07-25T00:49:36.283Z,22.40
2022-07-25T00:52:06.236Z,22.40
2022-07-25T00:54:34.927Z,22.40
2022-07-25T00:57:02.845Z,22.30
2022-07-25T00:59:31.358Z,22.30
2022-07-25T01:02:00.015Z,22.30
2022-07-25T01:04:31.910Z,22.30
2022-07-25T01:07:00.626Z,22.40
2022-07-25T01:09:30.452Z,22.30
2022-07-25T01:11:58.360Z,22.30
2022-07-25T01:14:26.331Z,22.30
2022-07-25T01:16:54.332Z,22.30
2022-07-25T01:19:22.256Z,22.30
2022-07-25T01:21:51.479Z,22.30
2022-07-25T01:24:19.401Z,22.20
2022-07-25T01:26:47.309Z,22.20
2022-07-25T01:29:15.260Z,22.20
2022-07-25T01:31:43.161Z,22.20
2022-07-25T01:34:11.072Z,22.10
2022-07-25T01:36:39.121Z,22.10
2022-07-25T01:39:08.411Z,22.10
2022-07-25T01:41:36.320Z,22.00
2022-07-25T01:44:05.123Z,22.00
2022-07-25T01:46:33.293Z,22.00
2022-07-25T01:49:01.412Z,22.00
2022-07-25T01:51:29.378Z,22.00
2022-07-25T01:53:57.321Z,21.90
2022-07-25T01:56:26.732Z,21.90
2022-07-25T01:58:56.455Z,21.90
2022-07-25T02:01:24.619Z,21.90
2022-07-25T02:03:52.553Z,21.90
2022-07-25T02:06:20.871Z,21.80
2022-07-25T02:08:48.894Z,21.80
2022-07-25T02:11:18.067Z,21.80
2022-07-25T02:13:47.766Z,21.80
2022-07-25T02:16:15.658Z,21.80
2022-07-25T02:18:43.596Z,21.80
2022-07-25T02:21:14.544Z,21.70
2022-07-25T02:23:43.292Z,21.80
2022-07-25T02:26:11.628Z,21.80
2022-07-25T02:28:39.699Z,21.80
2022-07-25T02:31:09.593Z,21.80
2022-07-25T02:33:38.011Z,21.80
2022-07-25T02:36:06.277Z,21.70
2022-07-25T02:38:34.190Z,21.70
2022-07-25T02:41:02.161Z,21.70
2022-07-25T02:43:30.111Z,21.70
2022-07-25T02:45:58.143Z,21.70
2022-07-25T02:48:27.657Z,21.70
2022-07-25T02:50:55.641Z,21.60
2022-07-25T02:53:40.261Z,21.50
2022-07-25T02:56:11.835Z,21.50
2022-07-25T02:58:42.231Z,21.40
2022-07-25T03:01:10.527Z,21.30
2022-07-25T03:03:40.388Z,21.20
2022-07-25T03:06:08.711Z,21.20
2022-07-25T03:08:36.604Z,21.10
2022-07-25T03:11:04.857Z,21.00
2022-07-25T03:13:33.792Z,21.00
2022-07-25T03:16:01.981Z,20.90
2022-07-25T03:18:29.964Z,20.80
2022-07-25T03:20:59.195Z,20.80
2022-07-25T03:23:28.190Z,20.80
2022-07-25T03:25:56.696Z,20.80
2022-07-25T03:28:25.227Z,20.70
2022-07-25T03:30:53.439Z,20.70
2022-07-25T03:33:21.347Z,20.70
2022-07-25T03:35:49.301Z,20.60
2022-07-25T03:38:18.642Z,20.60
2022-07-25T03:40:46.629Z,20.50
2022-07-25T03:43:14.533Z,20.50
2022-07-25T03:45:42.726Z,20.40
2022-07-25T03:48:10.736Z,20.40
2022-07-25T03:50:38.693Z,20.40
2022-07-25T03:53:06.589Z,20.30
2022-07-25T03:55:40.337Z,20.20
2022-07-25T03:58:08.600Z,20.20
2022-07-25T04:00:36.925Z,20.10
2022-07-25T04:03:05.114Z,20.00
2022-07-25T04:05:33.050Z,20.00
2022-07-25T04:08:01.000Z,19.90
2022-07-25T04:10:28.898Z,19.90
2022-07-25T04:12:58.170Z,19.80
2022-07-25T04:15:26.228Z,19.90
2022-07-25T04:17:54.146Z,19.90
2022-07-25T04:20:23.385Z,19.90
2022-07-25T04:22:53.032Z,19.90
2022-07-25T04:25:20.890Z,19.90
2022-07-25T04:27:48.847Z,20.00
2022-07-25T04:30:23.947Z,20.10
2022-07-25T04:32:53.208Z,20.20
2022-07-25T04:35:21.556Z,20.20
2022-07-25T04:37:49.522Z,20.30
2022-07-25T04:40:17.549Z,20.40
2022-07-25T04:42:45.504Z,20.50
2022-07-25T04:45:14.259Z,20.70
2022-07-25T04:47:47.201Z,20.90
2022-07-25T04:50:15.197Z,21.10
2022-07-25T04:52:44.158Z,21.40
2022-07-25T04:55:12.465Z,21.70
2022-07-25T04:57:40.735Z,22.10
2022-07-25T05:00:11.261Z,22.50
2022-07-25T05:02:39.480Z,22.90
2022-07-25T05:05:20.979Z,23.30
2022-07-25T05:07:49.321Z,23.60
2022-07-25T05:10:17.232Z,23.90
2022-07-25T05:12:45.254Z,24.30
2022-07-25T05:15:13.577Z,24.60
2022-07-25T05:17:41.476Z,24.80
2022-07-25T05:20:12.127Z,25.10
2022-07-25T05:22:40.202Z,25.30
2022-07-25T05:25:10.119Z,25.40
2022-07-25T05:27:38.247Z,25.60
2022-07-25T05:30:07.790Z,25.70
2022-07-25T05:32:35.767Z,25.90
2022-07-25T05:35:04.086Z,26.00
2022-07-25T05:37:33.311Z,26.10
2022-07-25T05:40:01.961Z,26.20
2022-07-25T05:42:29.852Z,26.40
2022-07-25T05:44:57.762Z,26.50
2022-07-25T05:47:25.875Z,26.60
2022-07-25T05:49:53.784Z,26.60
2022-07-25T05:52:21.850Z,26.70
2022-07-25T05:54:51.359Z,26.70
2022-07-25T05:57:19.258Z,26.80
2022-07-25T05:59:47.284Z,27.00
2022-07-25T06:02:15.323Z,27.10
2022-07-25T06:04:43.377Z,27.20
2022-07-25T06:07:14.311Z,27.30
2022-07-25T06:09:45.272Z,27.30
2022-07-25T06:12:14.998Z,27.40
2022-07-25T06:14:43.715Z,27.60
2022-07-25T06:17:11.624Z,27.60
2022-07-25T06:19:39.624Z,27.70
2022-07-25T06:22:08.060Z,27.80
2022-07-25T06:24:36.251Z,27.90
2022-07-25T06:27:04.213Z,28.00
2022-07-25T06:29:33.682Z,27.90
2022-07-25T06:32:01.674Z,28.10
2022-07-25T06:34:30.087Z,28.20
2022-07-25T06:36:58.457Z,28.20
2022-07-25T06:39:28.138Z,28.30
2022-07-25T06:41:57.320Z,28.50
2022-07-25T06:44:27.708Z,28.50
2022-07-25T06:46:56.952Z,28.50
2022-07-25T06:49:24.899Z,28.70
2022-07-25T06:51:52.784Z,28.90
2022-07-25T06:54:20.735Z,29.20
2022-07-25T06:56:48.648Z,29.30
2022-07-25T06:59:20.225Z,29.50
2022-07-25T07:01:51.484Z,29.60
2022-07-25T07:04:21.164Z,29.60
2022-07-25T07:06:49.061Z,29.60
2022-07-25T07:09:16.975Z,29.80
2022-07-25T07:11:44.875Z,29.90
2022-07-25T07:14:12.833Z,29.90
2022-07-25T07:16:42.365Z,30.10
2022-07-25T07:19:12.035Z,30.20
2022-07-25T07:21:41.455Z,30.40
2022-07-25T07:24:23.312Z,30.40
2022-07-25T07:26:51.956Z,30.50
2022-07-25T07:29:19.979Z,30.60
2022-07-25T07:31:48.079Z,30.60
2022-07-25T07:34:16.475Z,30.60
2022-07-25T07:36:46.007Z,30.70
2022-07-25T07:39:13.918Z,30.80
2022-07-25T07:41:41.841Z,30.80
2022-07-25T07:44:09.745Z,30.90
2022-07-25T07:46:37.752Z,31.00
2022-07-25T07:49:05.958Z,31.10
2022-07-25T07:51:34.154Z,31.10
2022-07-25T07:54:20.996Z,31.10
2022-07-25T07:56:48.926Z,31.10
2022-07-25T07:59:17.034Z,31.20
2022-07-25T08:01:45.006Z,31.30
2022-07-25T08:04:13.626Z,31.30
2022-07-25T08:06:43.162Z,31.30
2022-07-25T08:09:12.441Z,31.30
2022-07-25T08:11:40.360Z,31.40
2022-07-25T08:14:08.476Z,31.60
2022-07-25T08:16:36.664Z,31.50
2022-07-25T08:19:04.884Z,31.40
2022-07-25T08:21:32.825Z,31.40
2022-07-25T08:24:00.766Z,31.60
2022-07-25T08:26:31.210Z,31.80
2022-07-25T08:29:17.653Z,31.90
2022-07-25T08:31:47.082Z,31.80
2022-07-25T08:34:15.152Z,31.70
2022-07-25T08:36:43.227Z,31.60
2022-07-25T08:39:11.133Z,31.50
2022-07-25T08:41:42.202Z,31.40
2022-07-25T08:44:10.657Z,31.30
2022-07-25T08:46:41.581Z,31.30
2022-07-25T08:49:10.544Z,31.40
2022-07-25T08:51:40.677Z,31.40
2022-07-25T08:54:10.113Z,31.10
2022-07-25T08:56:38.313Z,31.00
2022-07-25T08:59:07.711Z,31.20
2022-07-25T09:01:35.759Z,31.50
2022-07-25T09:04:05.019Z,31.50
2022-07-25T09:06:33.342Z,31.70
2022-07-25T09:09:04.659Z,31.90
2022-07-25T09:11:34.601Z,32.00
2022-07-25T09:14:04.911Z,32.20
2022-07-25T09:16:36.465Z,32.30
2022-07-25T09:19:10.654Z,32.50
2022-07-25T09:21:39.821Z,32.50
2022-07-25T09:24:12.667Z,32.70
2022-07-25T09:26:52.294Z,32.50
2022-07-25T09:29:22.855Z,32.50
2022-07-25T09:31:52.878Z,32.50
2022-07-25T09:34:32.253Z,32.50
2022-07-25T09:37:00.237Z,32.50
2022-07-25T09:39:39.659Z,32.40
2022-07-25T09:42:24.675Z,32.40
2022-07-25T09:45:04.546Z,32.60
2022-07-25T09:47:37.451Z,32.60
2022-07-25T09:50:07.342Z,32.70
2022-07-25T09:52:36.677Z,32.70
2022-07-25T09:55:06.453Z,32.60
2022-07-25T09:57:34.416Z,32.70
2022-07-25T10:00:02.816Z,32.80
2022-07-25T10:02:49.526Z,32.80
2022-07-25T10:05:26.667Z,32.80
2022-07-25T10:07:56.245Z,32.80
2022-07-25T10:10:30.730Z,32.90
2022-07-25T10:13:09.504Z,33.10
2022-07-25T10:15:47.425Z,33.20
2022-07-25T10:18:19.120Z,33.10
2022-07-25T10:20:48.526Z,33.10
2022-07-25T10:23:21.734Z,33.30
2022-07-25T10:26:01.366Z,33.30
2022-07-25T10:28:39.340Z,33.50
2022-07-25T10:31:21.946Z,33.40
2022-07-25T10:33:53.320Z,33.10
2022-07-25T10:36:22.637Z,33.30
2022-07-25T10:38:53.394Z,33.40
2022-07-25T10:41:26.165Z,33.40
2022-07-25T10:43:58.732Z,33.40
2022-07-25T10:46:30.787Z,33.50
2022-07-25T10:49:03.844Z,33.50
2022-07-25T10:51:38.295Z,33.40
2022-07-25T10:54:16.862Z,33.50
2022-07-25T10:56:56.936Z,33.40
2022-07-25T10:59:31.436Z,33.40
2022-07-25T11:02:00.358Z,33.50
2022-07-25T11:04:30.054Z,33.60
2022-07-25T11:06:58.410Z,33.80
2022-07-25T11:09:28.781Z,33.30
2022-07-25T11:11:58.784Z,33.20
2022-07-25T11:14:31.223Z,33.10
2022-07-25T11:17:10.272Z,33.20
2022-07-25T11:19:39.612Z,33.20
2022-07-25T11:22:08.579Z,33.30
2022-07-25T11:24:37.870Z,33.40
2022-07-25T11:27:11.423Z,33.60
2022-07-25T11:29:41.188Z,33.70
2022-07-25T11:32:12.265Z,33.80
2022-07-25T11:34:44.714Z,33.80
2022-07-25T11:37:14.656Z,33.80
2022-07-25T11:39:44.573Z,34.10
2022-07-25T11:42:16.303Z,34.30
2022-07-25T11:44:48.119Z,34.40
2022-07-25T11:47:28.831Z,34.50
2022-07-25T11:49:59.721Z,34.60
2022-07-25T11:52:31.447Z,34.70
2022-07-25T11:55:01.800Z,35.10
2022-07-25T11:57:31.650Z,35.10
2022-07-25T12:00:01.110Z,35.20
2022-07-25T12:02:32.005Z,35.40
2022-07-25T12:05:02.884Z,35.60
2022-07-25T12:07:42.309Z,35.70
2022-07-25T12:10:12.315Z,35.50
2022-07-25T12:12:49.256Z,35.60
2022-07-25T12:15:19.877Z,35.50
2022-07-25T12:17:49.165Z,35.40
2022-07-25T12:20:20.834Z,35.50
2022-07-25T12:22:49.958Z,35.70
2022-07-25T12:25:18.574Z,35.80
2022-07-25T12:27:46.870Z,35.90
2022-07-25T12:30:15.283Z,36.00
2022-07-25T12:32:44.043Z,36.00
2022-07-25T12:35:13.761Z,35.80
2022-07-25T12:37:43.599Z,35.90
2022-07-25T12:40:13.283Z,36.10
2022-07-25T12:42:41.519Z,36.00
2022-07-25T12:45:10.176Z,35.90
2022-07-25T12:47:38.173Z,35.80
2022-07-25T12:50:07.040Z,35.90
2022-07-25T12:52:35.037Z,35.70
2022-07-25T12:55:04.753Z,35.80
2022-07-25T12:57:32.792Z,35.60
2022-07-25T13:00:00.697Z,35.40
2022-07-25T13:02:28.714Z,35.60
2022-07-25T13:04:56.721Z,35.60
2022-07-25T13:07:24.680Z,35.70
2022-07-25T13:09:52.683Z,35.80
2022-07-25T13:12:23.565Z,35.90
2022-07-25T13:14:51.742Z,35.70
2022-07-25T13:17:22.476Z,35.90
2022-07-25T13:19:54.727Z,35.70
2022-07-25T13:22:22.692Z,35.80
2022-07-25T13:24:50.646Z,36.10
2022-07-25T13:27:21.470Z,36.10
2022-07-25T13:29:54.142Z,36.20
2022-07-25T13:32:22.567Z,36.20
2022-07-25T13:34:50.649Z,36.20
2022-07-25T13:37:18.881Z,36.20
2022-07-25T13:39:46.770Z,36.20
2022-07-25T13:42:14.724Z,36.20
2022-07-25T13:44:43.995Z,36.30
2022-07-25T13:47:11.977Z,36.30
2022-07-25T13:49:40.669Z,36.30
2022-07-25T13:52:08.702Z,36.40
2022-07-25T13:54:36.610Z,36.60
2022-07-25T13:57:04.925Z,36.70
2022-07-25T13:59:33.148Z,36.90
2022-07-25T14:02:02.563Z,36.80
2022-07-25T14:04:30.889Z,36.60
2022-07-25T14:07:00.954Z,36.60
2022-07-25T14:09:28.869Z,36.60
2022-07-25T14:11:56.820Z,36.40
2022-07-25T14:14:24.924Z,36.50
2022-07-25T14:16:53.068Z,36.70
2022-07-25T14:19:24.084Z,36.60
2022-07-25T14:21:52.203Z,36.70
2022-07-25T14:24:20.114Z,36.80
2022-07-25T14:26:49.156Z,36.80
2022-07-25T14:29:17.097Z,37.00
2022-07-25T14:31:45.134Z,37.00
2022-07-25T14:34:15.349Z,37.10
2022-07-25T14:36:47.419Z,37.00
2022-07-25T14:39:16.250Z,37.00
2022-07-25T14:41:44.390Z,37.00
2022-07-25T14:44:13.341Z,37.00
2022-07-25T14:46:43.049Z,37.20
2022-07-25T14:49:14.363Z,37.20
2022-07-25T14:51:45.308Z,37.20
2022-07-25T14:54:13.361Z,37.30
2022-07-25T14:56:41.545Z,37.20
2022-07-25T14:59:09.882Z,37.00
2022-07-25T15:01:38.930Z,36.70
2022-07-25T15:04:07.087Z,36.30
2022-07-25T15:06:34.993Z,36.20
2022-07-25T15:09:04.669Z,36.00
2022-07-25T15:11:32.807Z,35.60
2022-07-25T15:14:00.721Z,35.30
2022-07-25T15:16:28.772Z,35.10
2022-07-25T15:19:15.915Z,34.90
2022-07-25T15:21:44.578Z,34.70
2022-07-25T15:24:14.532Z,34.40
2022-07-25T15:26:43.029Z,34.40
2022-07-25T15:29:13.452Z,34.40
2022-07-25T15:31:41.544Z,34.30
2022-07-25T15:34:09.490Z,34.40
2022-07-25T15:36:38.151Z,34.40
2022-07-25T15:39:06.364Z,34.40
2022-07-25T15:41:37.213Z,34.40
2022-07-25T15:44:05.544Z,34.40
2022-07-25T15:46:33.897Z,34.50
2022-07-25T15:49:02.600Z,34.60
2022-07-25T15:51:30.575Z,34.70
2022-07-25T15:53:58.530Z,34.70
2022-07-25T15:56:26.622Z,34.60
2022-07-25T15:58:56.015Z,34.50
2022-07-25T16:01:24.117Z,34.30
2022-07-25T16:03:52.112Z,34.20
2022-07-25T16:06:20.893Z,34.00
2022-07-25T16:08:50.089Z,33.90
2022-07-25T16:11:24.972Z,33.90
2022-07-25T16:13:53.655Z,33.80
2022-07-25T16:16:23.140Z,33.70
2022-07-25T16:18:51.103Z,33.50
2022-07-25T16:21:19.269Z,33.40
2022-07-25T16:23:47.600Z,33.30
2022-07-25T16:26:15.503Z,33.30
2022-07-25T16:28:43.400Z,33.20
2022-07-25T16:31:11.412Z,33.20
2022-07-25T16:33:40.947Z,33.10
2022-07-25T16:36:09.710Z,33.00
2022-07-25T16:38:37.950Z,32.90
2022-07-25T16:41:06.222Z,32.90
2022-07-25T16:43:34.096Z,32.80
2022-07-25T16:46:02.918Z,32.80
2022-07-25T16:48:31.554Z,32.80
2022-07-25T16:51:01.471Z,32.70
2022-07-25T16:53:29.450Z,32.70
2022-07-25T16:55:57.430Z,32.70
2022-07-25T16:58:25.335Z,32.70
2022-07-25T17:00:53.239Z,32.80
2022-07-25T17:03:21.604Z,32.90
2022-07-25T17:05:51.605Z,32.90
2022-07-25T17:08:20.971Z,33.00
2022-07-25T17:10:48.894Z,33.00
2022-07-25T17:13:16.840Z,33.00
2022-07-25T17:15:45.529Z,32.90
2022-07-25T17:18:14.168Z,32.90
2022-07-25T17:20:42.301Z,32.80
2022-07-25T17:23:11.028Z,32.70
2022-07-25T17:25:41.416Z,32.60
2022-07-25T17:28:09.416Z,32.60
2022-07-25T17:30:37.455Z,32.40
2022-07-25T17:33:05.490Z,32.30
2022-07-25T17:35:33.770Z,32.20
2022-07-25T17:38:02.302Z,32.10
2022-07-25T17:40:30.364Z,32.00
2022-07-25T17:42:59.646Z,31.90
2022-07-25T17:45:27.689Z,31.80
2022-07-25T17:47:55.727Z,31.70
2022-07-25T17:50:29.221Z,31.70
2022-07-25T17:52:59.471Z,31.60
2022-07-25T17:55:29.493Z,31.40
2022-07-25T17:58:00.897Z,31.40
2022-07-25T18:00:28.818Z,31.40
2022-07-25T18:02:56.981Z,31.40
2022-07-25T18:05:25.218Z,31.20
2022-07-25T18:07:53.906Z,31.10
2022-07-25T18:10:22.642Z,30.90
2022-07-25T18:12:51.264Z,30.70
2022-07-25T18:15:20.662Z,30.60
2022-07-25T18:17:49.242Z,30.50
2022-07-25T18:20:17.611Z,30.30
2022-07-25T18:22:46.088Z,30.20
2022-07-25T18:25:15.685Z,30.10
2022-07-25T18:27:44.681Z,29.90
2022-07-25T18:30:14.806Z,29.80
2022-07-25T18:32:45.437Z,29.70
2022-07-25T18:35:13.934Z,29.60
2022-07-25T18:37:42.023Z,29.50
2022-07-25T18:40:11.161Z,29.40
2022-07-25T18:42:40.318Z,29.20
2022-07-25T18:45:09.357Z,29.10
2022-07-25T18:47:37.920Z,29.00
2022-07-25T18:50:08.552Z,28.90
2022-07-25T18:52:37.380Z,28.80
2022-07-25T18:55:07.720Z,28.70
2022-07-25T18:57:36.077Z,28.60
2022-07-25T19:00:05.280Z,28.40
2022-07-25T19:02:33.202Z,28.30
2022-07-25T19:05:01.664Z,28.20
2022-07-25T19:07:31.334Z,28.10
2022-07-25T19:09:59.399Z,28.00
2022-07-25T19:12:27.373Z,27.90
2022-07-25T19:14:56.190Z,27.90
2022-07-25T19:17:24.569Z,27.80
2022-07-25T19:19:53.143Z,27.70
2022-07-25T19:22:21.117Z,27.70
2022-07-25T19:24:50.400Z,27.50
2022-07-25T19:27:18.280Z,27.40
2022-07-25T19:29:46.339Z,27.30
2022-07-25T19:32:17.926Z,27.20
2022-07-25T19:34:46.279Z,27.10
2022-07-25T19:37:14.309Z,27.00
2022-07-25T19:39:42.289Z,26.80
2022-07-25T19:42:12.236Z,26.70
2022-07-25T19:44:40.561Z,26.60
2022-07-25T19:47:11.646Z,26.40
2022-07-25T19:49:40.538Z,26.30
2022-07-25T19:52:09.357Z,26.20
2022-07-25T19:54:37.365Z,26.00
2022-07-25T19:57:05.535Z,25.90
2022-07-25T19:59:34.830Z,25.80
2022-07-25T20:02:02.930Z,25.70
2022-07-25T20:04:32.067Z,25.70
2022-07-25T20:07:02.179Z,25.60
2022-07-25T20:09:30.351Z,25.50
2022-07-25T20:11:58.735Z,25.40
2022-07-25T20:14:26.649Z,25.30
2022-07-25T20:16:56.062Z,25.30
2022-07-25T20:19:24.548Z,25.30
2022-07-25T20:21:52.767Z,25.20
2022-07-25T20:24:21.632Z,25.10
2022-07-25T20:26:50.087Z,25.10
2022-07-25T20:29:18.203Z,25.00
2022-07-25T20:31:46.108Z,25.00
2022-07-25T20:34:15.916Z,24.90
2022-07-25T20:36:47.574Z,24.80
2022-07-25T20:39:15.612Z,24.70
2022-07-25T20:41:44.683Z,24.80
2022-07-25T20:44:12.841Z,24.80
2022-07-25T20:46:40.814Z,24.70
2022-07-25T20:49:10.899Z,24.70
2022-07-25T20:51:42.845Z,24.50
2022-07-25T20:54:12.740Z,24.30
2022-07-25T20:56:40.667Z,24.20
2022-07-25T20:59:09.156Z,24.10
2022-07-25T21:01:38.067Z,24.00
2022-07-25T21:04:07.882Z,23.90
2022-07-25T21:06:36.959Z,23.80
2022-07-25T21:09:08.768Z,23.70
2022-07-25T21:11:37.234Z,23.60
2022-07-25T21:14:05.842Z,23.20
2022-07-25T21:16:34.294Z,23.20
2022-07-25T21:19:02.268Z,23.10
2022-07-25T21:21:30.302Z,23.00
2022-07-25T21:23:58.427Z,22.70
2022-07-25T21:26:27.848Z,22.60
2022-07-25T21:28:55.863Z,22.50
2022-07-25T21:31:23.953Z,22.40
2022-07-25T21:33:58.854Z,22.40
2022-07-25T21:36:42.793Z,22.30
2022-07-25T21:40:16.546Z,22.20
2022-07-25T21:48:03.773Z,22.10
2022-07-25T21:50:43.881Z,21.90
2022-07-25T21:53:17.237Z,21.80
2022-07-25T21:55:47.842Z,21.80
2022-07-25T21:58:16.009Z,21.70
2022-07-25T22:00:46.815Z,21.70
2022-07-25T22:03:16.276Z,21.60
2022-07-25T22:05:44.326Z,21.60
2022-07-25T22:08:12.351Z,21.60
2022-07-25T22:10:40.453Z,21.50
2022-07-25T22:13:12.619Z,21.50
2022-07-25T22:15:40.907Z,21.50
2022-07-25T22:18:09.006Z,21.40
2022-07-25T22:20:38.545Z,21.40
2022-07-25T22:23:08.362Z,21.30
2022-07-25T22:25:36.412Z,21.30
2022-07-25T22:28:04.367Z,21.20
2022-07-25T22:30:32.345Z,21.20
2022-07-25T22:33:00.315Z,21.10
2022-07-25T22:35:28.421Z,21.10
2022-07-25T22:37:57.628Z,21.00
2022-07-25T22:40:25.855Z,20.90
2022-07-25T22:42:53.768Z,20.90
2022-07-25T22:45:23.905Z,20.90
2022-07-25T22:47:51.980Z,20.90
2022-07-25T22:50:20.091Z,21.00
2022-07-25T22:52:48.370Z,21.00
2022-07-25T22:55:17.719Z,21.00
2022-07-25T22:57:45.637Z,21.00
2022-07-25T23:00:14.350Z,21.00
2022-07-25T23:02:42.658Z,21.00
2022-07-25T23:05:10.955Z,21.00
2022-07-25T23:07:39.270Z,21.00
2022-07-25T23:10:08.365Z,21.00
2022-07-25T23:12:37.959Z,21.00
2022-07-25T23:15:06.705Z,21.00
2022-07-25T23:17:34.554Z,21.00
2022-07-25T23:20:02.705Z,21.10
2022-07-25T23:22:30.770Z,21.10
2022-07-25T23:25:00.275Z,21.00
2022-07-25T23:27:29.668Z,21.10
2022-07-25T23:30:05.649Z,21.10
2022-07-25T23:32:34.404Z,21.10
2022-07-25T23:35:02.451Z,21.20
2022-07-25T23:37:30.851Z,21.20
2022-07-25T23:39:58.899Z,21.20
2022-07-25T23:42:26.943Z,21.30
2022-07-25T23:44:54.960Z,21.30
2022-07-25T23:47:39.441Z,21.30
2022-07-25T23:50:12.508Z,21.30
2022-07-25T23:52:40.481Z,21.20
2022-07-25T23:55:09.620Z,21.20
2022-07-25T23:57:37.498Z,21.20
